sensor_id;sensor_type;location;lat;lon;timestamp;P1;durP1;ratioP1;P2;durP2;ratioP2
29380;SDS011;16364;52.490;13.326;2023-07-31T00:01:46;2.93;;;2.10;;
29380;SDS011;16364;52.490;13.326;2023-07-31T00:04:11;4.27;;;1.77;;
29380;SDS011;16364;52.490;13.326;2023-07-31T00:06:36;4.13;;;2.07;;
29380;SDS011;16364;52.490;13.326;2023-07-31T00:09:01;1.93;;;1.77;;
29380;SDS011;16364;52.490;13.326;2023-07-31T00:11:27;2.23;;;2.03;;
29380;SDS011;16364;52.490;13.326;2023-07-31T00:13:52;2.60;;;2.40;;
29380;SDS011;16364;52.490;13.326;2023-07-31T00:16:18;2.27;;;1.70;;
29380;SDS011;16364;52.490;13.326;2023-07-31T00:18:43;3.90;;;2.83;;
29380;SDS011;16364;52.490;13.326;2023-07-31T00:21:08;3.20;;;2.10;;
29380;SDS011;16364;52.490;13.326;2023-07-31T00:23:33;5.53;;;2.23;;
29380;SDS011;16364;52.490;13.326;2023-07-31T00:25:59;3.90;;;2.03;;
29380;SDS011;16364;52.490;13.326;2023-07-31T00:28:24;2.17;;;1.60;;
29380;SDS011;16364;52.490;13.326;2023-07-31T00:30:49;2.20;;;2.00;;
29380;SDS011;16364;52.490;13.326;2023-07-31T00:33:14;4.27;;;2.00;;
29380;SDS011;16364;52.490;13.326;2023-07-31T00:35:40;3.17;;;2.43;;
29380;SDS011;16364;52.490;13.326;2023-07-31T00:38:05;4.90;;;4.17;;
29380;SDS011;16364;52.490;13.326;2023-07-31T00:40:34;6.53;;;5.10;;
29380;SDS011;16364;52.490;13.326;2023-07-31T00:42:59;3.07;;;2.87;;
29380;SDS011;16364;52.490;13.326;2023-07-31T00:45:24;2.50;;;2.10;;
29380;SDS011;16364;52.490;13.326;2023-07-31T00:47:51;3.40;;;2.30;;
29380;SDS011;16364;52.490;13.326;2023-07-31T00:50:17;2.00;;;1.80;;
29380;SDS011;16364;52.490;13.326;2023-07-31T00:52:42;2.20;;;2.00;;
29380;SDS011;16364;52.490;13.326;2023-07-31T00:55:07;2.00;;;1.70;;
29380;SDS011;16364;52.490;13.326;2023-07-31T00:57:33;2.90;;;2.23;;
29380;SDS011;16364;52.490;13.326;2023-07-31T00:59:59;2.30;;;2.00;;
29380;SDS011;16364;52.490;13.326;2023-07-31T01:02:25;2.53;;;2.13;;
29380;SDS011;16364;52.490;13.326;2023-07-31T01:04:50;2.40;;;2.20;;
29380;SDS011;16364;52.490;13.326;2023-07-31T01:07:20;2.63;;;1.80;;
29380;SDS011;16364;52.490;13.326;2023-07-31T01:09:49;4.20;;;2.30;;
29380;SDS011;16364;52.490;13.326;2023-07-31T01:12:17;2.70;;;2.50;;
29380;SDS011;16364;52.490;13.326;2023-07-31T01:14:50;4.20;;;2.37;;
29380;SDS011;16364;52.490;13.326;2023-07-31T01:17:16;3.63;;;3.33;;
29380;SDS011;16364;52.490;13.326;2023-07-31T01:19:41;3.00;;;2.70;;
29380;SDS011;16364;52.490;13.326;2023-07-31T01:22:12;3.90;;;2.37;;
29380;SDS011;16364;52.490;13.326;2023-07-31T01:27:20;2.33;;;1.80;;
29380;SDS011;16364;52.490;13.326;2023-07-31T01:29:52;4.47;;;2.83;;
29380;SDS011;16364;52.490;13.326;2023-07-31T01:32:20;3.00;;;2.27;;
29380;SDS011;16364;52.490;13.326;2023-07-31T01:34:46;2.53;;;2.20;;
29380;SDS011;16364;52.490;13.326;2023-07-31T01:37:12;3.50;;;2.20;;
29380;SDS011;16364;52.490;13.326;2023-07-31T01:39:37;2.50;;;2.30;;
29380;SDS011;16364;52.490;13.326;2023-07-31T01:42:03;3.07;;;2.77;;
29380;SDS011;16364;52.490;13.326;2023-07-31T01:44:28;2.97;;;2.47;;
29380;SDS011;16364;52.490;13.326;2023-07-31T01:46:53;3.37;;;2.50;;
29380;SDS011;16364;52.490;13.326;2023-07-31T01:49:18;2.00;;;1.80;;
29380;SDS011;16364;52.490;13.326;2023-07-31T01:51:44;5.23;;;2.23;;
29380;SDS011;16364;52.490;13.326;2023-07-31T01:54:09;2.30;;;2.10;;
29380;SDS011;16364;52.490;13.326;2023-07-31T01:56:34;2.30;;;2.03;;
29380;SDS011;16364;52.490;13.326;2023-07-31T01:58:59;3.87;;;2.30;;
29380;SDS011;16364;52.490;13.326;2023-07-31T02:01:25;2.87;;;2.20;;
29380;SDS011;16364;52.490;13.326;2023-07-31T02:03:50;6.27;;;2.70;;
29380;SDS011;16364;52.490;13.326;2023-07-31T02:06:15;2.40;;;1.83;;
29380;SDS011;16364;52.490;13.326;2023-07-31T02:08:40;2.30;;;2.10;;
29380;SDS011;16364;52.490;13.326;2023-07-31T02:11:06;2.80;;;2.60;;
29380;SDS011;16364;52.490;13.326;2023-07-31T02:13:31;2.57;;;2.30;;
29380;SDS011;16364;52.490;13.326;2023-07-31T02:15:56;2.60;;;2.40;;
29380;SDS011;16364;52.490;13.326;2023-07-31T02:18:22;3.43;;;2.50;;
29380;SDS011;16364;52.490;13.326;2023-07-31T02:20:50;3.47;;;2.57;;
29380;SDS011;16364;52.490;13.326;2023-07-31T02:23:16;2.23;;;2.03;;
29380;SDS011;16364;52.490;13.326;2023-07-31T02:25:41;2.50;;;2.30;;
29380;SDS011;16364;52.490;13.326;2023-07-31T02:28:07;2.20;;;1.97;;
29380;SDS011;16364;52.490;13.326;2023-07-31T02:30:32;2.60;;;2.40;;
29380;SDS011;16364;52.490;13.326;2023-07-31T02:32:57;3.93;;;2.30;;
29380;SDS011;16364;52.490;13.326;2023-07-31T02:35:22;7.93;;;2.47;;
29380;SDS011;16364;52.490;13.326;2023-07-31T02:37:48;6.93;;;2.60;;
29380;SDS011;16364;52.490;13.326;2023-07-31T02:40:13;2.20;;;2.10;;
29380;SDS011;16364;52.490;13.326;2023-07-31T02:42:38;7.50;;;2.93;;
29380;SDS011;16364;52.490;13.326;2023-07-31T02:45:04;3.30;;;2.80;;
29380;SDS011;16364;52.490;13.326;2023-07-31T02:47:29;4.70;;;2.37;;
29380;SDS011;16364;52.490;13.326;2023-07-31T02:49:55;2.87;;;1.90;;
29380;SDS011;16364;52.490;13.326;2023-07-31T02:52:21;3.70;;;3.07;;
29380;SDS011;16364;52.490;13.326;2023-07-31T02:54:46;4.03;;;2.93;;
29380;SDS011;16364;52.490;13.326;2023-07-31T02:57:11;3.83;;;2.60;;
29380;SDS011;16364;52.490;13.326;2023-07-31T02:59:36;3.30;;;2.93;;
29380;SDS011;16364;52.490;13.326;2023-07-31T03:02:02;3.23;;;3.03;;
29380;SDS011;16364;52.490;13.326;2023-07-31T03:04:27;4.43;;;2.70;;
29380;SDS011;16364;52.490;13.326;2023-07-31T03:06:52;3.87;;;3.00;;
29380;SDS011;16364;52.490;13.326;2023-07-31T03:09:17;4.23;;;2.60;;
29380;SDS011;16364;52.490;13.326;2023-07-31T03:11:42;6.67;;;4.20;;
29380;SDS011;16364;52.490;13.326;2023-07-31T03:14:08;3.10;;;2.90;;
29380;SDS011;16364;52.490;13.326;2023-07-31T03:16:33;3.67;;;3.20;;
29380;SDS011;16364;52.490;13.326;2023-07-31T03:18:58;2.87;;;2.67;;
29380;SDS011;16364;52.490;13.326;2023-07-31T03:21:23;4.20;;;3.40;;
29380;SDS011;16364;52.490;13.326;2023-07-31T03:23:49;3.90;;;3.10;;
29380;SDS011;16364;52.490;13.326;2023-07-31T03:26:14;4.73;;;3.70;;
29380;SDS011;16364;52.490;13.326;2023-07-31T03:28:39;4.23;;;3.33;;
29380;SDS011;16364;52.490;13.326;2023-07-31T03:31:04;3.50;;;3.10;;
29380;SDS011;16364;52.490;13.326;2023-07-31T03:33:30;5.27;;;3.63;;
29380;SDS011;16364;52.490;13.326;2023-07-31T03:35:55;3.63;;;3.43;;
29380;SDS011;16364;52.490;13.326;2023-07-31T03:38:20;5.93;;;4.00;;
29380;SDS011;16364;52.490;13.326;2023-07-31T03:40:45;4.63;;;3.40;;
29380;SDS011;16364;52.490;13.326;2023-07-31T03:43:11;8.00;;;3.63;;
29380;SDS011;16364;52.490;13.326;2023-07-31T03:45:36;4.73;;;4.20;;
29380;SDS011;16364;52.490;13.326;2023-07-31T03:48:02;4.97;;;3.73;;
29380;SDS011;16364;52.490;13.326;2023-07-31T03:50:27;3.80;;;3.50;;
29380;SDS011;16364;52.490;13.326;2023-07-31T03:52:52;3.80;;;3.00;;
29380;SDS011;16364;52.490;13.326;2023-07-31T03:55:18;4.67;;;3.50;;
29380;SDS011;16364;52.490;13.326;2023-07-31T03:57:43;4.13;;;3.73;;
29380;SDS011;16364;52.490;13.326;2023-07-31T04:00:09;4.40;;;3.70;;
29380;SDS011;16364;52.490;13.326;2023-07-31T04:02:34;4.17;;;3.80;;
29380;SDS011;16364;52.490;13.326;2023-07-31T04:04:59;4.13;;;3.50;;
29380;SDS011;16364;52.490;13.326;2023-07-31T04:07:25;3.90;;;3.47;;
29380;SDS011;16364;52.490;13.326;2023-07-31T04:09:50;4.43;;;4.03;;
29380;SDS011;16364;52.490;13.326;2023-07-31T04:12:15;4.50;;;3.27;;
29380;SDS011;16364;52.490;13.326;2023-07-31T04:14:40;3.73;;;3.40;;
29380;SDS011;16364;52.490;13.326;2023-07-31T04:17:05;4.27;;;3.97;;
29380;SDS011;16364;52.490;13.326;2023-07-31T04:19:31;3.47;;;3.27;;
29380;SDS011;16364;52.490;13.326;2023-07-31T04:21:56;5.37;;;3.97;;
29380;SDS011;16364;52.490;13.326;2023-07-31T04:24:21;3.63;;;3.33;;
29380;SDS011;16364;52.490;13.326;2023-07-31T04:26:50;7.07;;;3.60;;
29380;SDS011;16364;52.490;13.326;2023-07-31T04:29:15;7.40;;;3.77;;
29380;SDS011;16364;52.490;13.326;2023-07-31T04:31:41;4.50;;;4.07;;
29380;SDS011;16364;52.490;13.326;2023-07-31T04:34:06;3.40;;;3.10;;
29380;SDS011;16364;52.490;13.326;2023-07-31T04:36:31;6.07;;;3.03;;
29380;SDS011;16364;52.490;13.326;2023-07-31T04:38:56;6.27;;;3.60;;
29380;SDS011;16364;52.490;13.326;2023-07-31T04:41:22;4.07;;;3.37;;
29380;SDS011;16364;52.490;13.326;2023-07-31T04:43:47;7.70;;;3.47;;
29380;SDS011;16364;52.490;13.326;2023-07-31T04:46:12;4.60;;;3.97;;
29380;SDS011;16364;52.490;13.326;2023-07-31T04:48:37;4.93;;;3.70;;
29380;SDS011;16364;52.490;13.326;2023-07-31T04:51:02;4.37;;;4.07;;
29380;SDS011;16364;52.490;13.326;2023-07-31T04:53:28;6.00;;;3.40;;
29380;SDS011;16364;52.490;13.326;2023-07-31T04:55:53;5.63;;;3.90;;
29380;SDS011;16364;52.490;13.326;2023-07-31T04:58:18;6.10;;;4.30;;
29380;SDS011;16364;52.490;13.326;2023-07-31T05:00:44;7.17;;;5.40;;
29380;SDS011;16364;52.490;13.326;2023-07-31T05:03:09;5.77;;;4.90;;
29380;SDS011;16364;52.490;13.326;2023-07-31T05:05:36;5.70;;;3.40;;
29380;SDS011;16364;52.490;13.326;2023-07-31T05:08:01;6.73;;;3.13;;
29380;SDS011;16364;52.490;13.326;2023-07-31T05:10:27;3.80;;;3.07;;
29380;SDS011;16364;52.490;13.326;2023-07-31T05:12:52;7.50;;;3.50;;
29380;SDS011;16364;52.490;13.326;2023-07-31T05:15:17;9.33;;;3.73;;
29380;SDS011;16364;52.490;13.326;2023-07-31T05:17:42;4.17;;;2.93;;
29380;SDS011;16364;52.490;13.326;2023-07-31T05:20:08;3.40;;;2.80;;
29380;SDS011;16364;52.490;13.326;2023-07-31T05:22:34;3.57;;;2.90;;
29380;SDS011;16364;52.490;13.326;2023-07-31T05:24:59;4.17;;;3.23;;
29380;SDS011;16364;52.490;13.326;2023-07-31T05:27:24;3.47;;;3.27;;
29380;SDS011;16364;52.490;13.326;2023-07-31T05:29:50;3.77;;;3.37;;
29380;SDS011;16364;52.490;13.326;2023-07-31T05:32:15;4.40;;;4.00;;
29380;SDS011;16364;52.490;13.326;2023-07-31T05:34:40;4.30;;;3.23;;
29380;SDS011;16364;52.490;13.326;2023-07-31T05:37:06;3.10;;;2.37;;
29380;SDS011;16364;52.490;13.326;2023-07-31T05:39:31;4.00;;;2.97;;
29380;SDS011;16364;52.490;13.326;2023-07-31T05:41:56;10.23;;;2.77;;
29380;SDS011;16364;52.490;13.326;2023-07-31T05:44:21;3.23;;;2.93;;
29380;SDS011;16364;52.490;13.326;2023-07-31T05:46:47;2.87;;;2.67;;
29380;SDS011;16364;52.490;13.326;2023-07-31T05:49:12;3.10;;;2.80;;
29380;SDS011;16364;52.490;13.326;2023-07-31T05:51:37;3.70;;;2.90;;
29380;SDS011;16364;52.490;13.326;2023-07-31T05:54:03;3.60;;;2.67;;
29380;SDS011;16364;52.490;13.326;2023-07-31T05:56:28;3.97;;;2.80;;
29380;SDS011;16364;52.490;13.326;2023-07-31T05:58:53;7.33;;;3.40;;
29380;SDS011;16364;52.490;13.326;2023-07-31T06:01:18;3.50;;;2.67;;
29380;SDS011;16364;52.490;13.326;2023-07-31T06:03:46;3.40;;;2.40;;
29380;SDS011;16364;52.490;13.326;2023-07-31T06:06:11;5.23;;;2.50;;
29380;SDS011;16364;52.490;13.326;2023-07-31T06:08:36;4.80;;;2.30;;
29380;SDS011;16364;52.490;13.326;2023-07-31T06:11:02;2.90;;;2.37;;
29380;SDS011;16364;52.490;13.326;2023-07-31T06:13:27;2.83;;;2.20;;
29380;SDS011;16364;52.490;13.326;2023-07-31T06:15:52;4.83;;;3.03;;
29380;SDS011;16364;52.490;13.326;2023-07-31T06:18:17;5.93;;;2.50;;
29380;SDS011;16364;52.490;13.326;2023-07-31T06:20:43;5.50;;;3.03;;
29380;SDS011;16364;52.490;13.326;2023-07-31T06:23:08;2.63;;;2.43;;
29380;SDS011;16364;52.490;13.326;2023-07-31T06:25:34;3.53;;;2.50;;
29380;SDS011;16364;52.490;13.326;2023-07-31T06:27:59;5.57;;;2.60;;
29380;SDS011;16364;52.490;13.326;2023-07-31T06:30:24;6.77;;;2.57;;
29380;SDS011;16364;52.490;13.326;2023-07-31T06:32:49;3.07;;;2.67;;
29380;SDS011;16364;52.490;13.326;2023-07-31T06:35:17;5.70;;;2.70;;
29380;SDS011;16364;52.490;13.326;2023-07-31T06:37:42;3.10;;;2.80;;
29380;SDS011;16364;52.490;13.326;2023-07-31T06:40:09;5.07;;;2.27;;
29380;SDS011;16364;52.490;13.326;2023-07-31T06:42:34;5.87;;;3.03;;
29380;SDS011;16364;52.490;13.326;2023-07-31T06:45:00;4.93;;;2.40;;
29380;SDS011;16364;52.490;13.326;2023-07-31T06:47:25;3.77;;;2.57;;
29380;SDS011;16364;52.490;13.326;2023-07-31T06:49:51;2.93;;;2.50;;
29380;SDS011;16364;52.490;13.326;2023-07-31T06:52:16;4.43;;;2.40;;
29380;SDS011;16364;52.490;13.326;2023-07-31T06:54:41;5.87;;;2.90;;
29380;SDS011;16364;52.490;13.326;2023-07-31T06:57:07;3.77;;;3.17;;
29380;SDS011;16364;52.490;13.326;2023-07-31T06:59:33;4.20;;;2.60;;
29380;SDS011;16364;52.490;13.326;2023-07-31T07:01:58;5.10;;;3.07;;
29380;SDS011;16364;52.490;13.326;2023-07-31T07:04:23;3.97;;;2.33;;
29380;SDS011;16364;52.490;13.326;2023-07-31T07:06:48;4.20;;;2.37;;
29380;SDS011;16364;52.490;13.326;2023-07-31T07:09:13;2.40;;;2.20;;
29380;SDS011;16364;52.490;13.326;2023-07-31T07:11:39;2.87;;;2.40;;
29380;SDS011;16364;52.490;13.326;2023-07-31T07:14:04;3.33;;;2.33;;
29380;SDS011;16364;52.490;13.326;2023-07-31T07:16:29;2.57;;;2.37;;
29380;SDS011;16364;52.490;13.326;2023-07-31T07:18:55;6.73;;;2.50;;
29380;SDS011;16364;52.490;13.326;2023-07-31T07:21:20;4.80;;;2.30;;
29380;SDS011;16364;52.490;13.326;2023-07-31T07:23:45;3.87;;;2.60;;
29380;SDS011;16364;52.490;13.326;2023-07-31T07:26:11;3.13;;;2.23;;
29380;SDS011;16364;52.490;13.326;2023-07-31T07:28:36;5.17;;;2.47;;
29380;SDS011;16364;52.490;13.326;2023-07-31T07:31:02;4.87;;;2.60;;
29380;SDS011;16364;52.490;13.326;2023-07-31T07:33:27;4.20;;;2.30;;
29380;SDS011;16364;52.490;13.326;2023-07-31T07:35:53;4.17;;;2.10;;
29380;SDS011;16364;52.490;13.326;2023-07-31T07:38:19;3.43;;;2.10;;
29380;SDS011;16364;52.490;13.326;2023-07-31T07:40:44;2.97;;;2.30;;
29380;SDS011;16364;52.490;13.326;2023-07-31T07:43:10;4.70;;;2.80;;
29380;SDS011;16364;52.490;13.326;2023-07-31T07:45:35;5.00;;;2.70;;
29380;SDS011;16364;52.490;13.326;2023-07-31T07:48:00;2.83;;;2.23;;
29380;SDS011;16364;52.490;13.326;2023-07-31T07:50:25;2.90;;;2.30;;
29380;SDS011;16364;52.490;13.326;2023-07-31T07:52:50;3.90;;;2.97;;
29380;SDS011;16364;52.490;13.326;2023-07-31T07:55:16;4.80;;;2.30;;
29380;SDS011;16364;52.490;13.326;2023-07-31T07:57:41;3.93;;;3.53;;
29380;SDS011;16364;52.490;13.326;2023-07-31T08:00:07;5.53;;;2.20;;
29380;SDS011;16364;52.490;13.326;2023-07-31T08:02:32;4.83;;;2.07;;
29380;SDS011;16364;52.490;13.326;2023-07-31T08:04:57;2.30;;;2.10;;
29380;SDS011;16364;52.490;13.326;2023-07-31T08:07:22;2.57;;;2.17;;
29380;SDS011;16364;52.490;13.326;2023-07-31T08:09:48;2.77;;;2.07;;
29380;SDS011;16364;52.490;13.326;2023-07-31T08:12:13;5.60;;;2.33;;
29380;SDS011;16364;52.490;13.326;2023-07-31T08:14:38;3.53;;;1.93;;
29380;SDS011;16364;52.490;13.326;2023-07-31T08:17:03;2.33;;;2.00;;
29380;SDS011;16364;52.490;13.326;2023-07-31T08:19:29;3.80;;;2.53;;
29380;SDS011;16364;52.490;13.326;2023-07-31T08:21:54;1.83;;;1.73;;
29380;SDS011;16364;52.490;13.326;2023-07-31T08:24:20;2.10;;;2.00;;
29380;SDS011;16364;52.490;13.326;2023-07-31T08:26:45;4.30;;;2.63;;
29380;SDS011;16364;52.490;13.326;2023-07-31T08:29:10;2.23;;;1.97;;
29380;SDS011;16364;52.490;13.326;2023-07-31T08:31:35;3.60;;;2.50;;
29380;SDS011;16364;52.490;13.326;2023-07-31T08:34:01;2.37;;;2.17;;
29380;SDS011;16364;52.490;13.326;2023-07-31T08:36:26;2.77;;;2.20;;
29380;SDS011;16364;52.490;13.326;2023-07-31T08:38:51;2.23;;;2.00;;
29380;SDS011;16364;52.490;13.326;2023-07-31T08:41:16;2.70;;;2.50;;
29380;SDS011;16364;52.490;13.326;2023-07-31T08:43:42;2.87;;;2.20;;
29380;SDS011;16364;52.490;13.326;2023-07-31T08:46:08;2.47;;;2.10;;
29380;SDS011;16364;52.490;13.326;2023-07-31T08:48:34;3.50;;;2.33;;
29380;SDS011;16364;52.490;13.326;2023-07-31T08:51:00;5.60;;;2.40;;
29380;SDS011;16364;52.490;13.326;2023-07-31T08:53:25;3.20;;;1.97;;
29380;SDS011;16364;52.490;13.326;2023-07-31T08:55:52;2.10;;;1.80;;
29380;SDS011;16364;52.490;13.326;2023-07-31T08:58:17;3.60;;;2.50;;
29380;SDS011;16364;52.490;13.326;2023-07-31T09:00:43;3.00;;;1.70;;
29380;SDS011;16364;52.490;13.326;2023-07-31T09:03:14;2.40;;;1.87;;
29380;SDS011;16364;52.490;13.326;2023-07-31T09:05:41;2.50;;;2.00;;
29380;SDS011;16364;52.490;13.326;2023-07-31T09:08:07;4.70;;;1.90;;
29380;SDS011;16364;52.490;13.326;2023-07-31T09:10:34;1.77;;;1.60;;
29380;SDS011;16364;52.490;13.326;2023-07-31T09:12:59;1.90;;;1.80;;
29380;SDS011;16364;52.490;13.326;2023-07-31T09:15:24;3.40;;;1.60;;
29380;SDS011;16364;52.490;13.326;2023-07-31T09:17:58;2.40;;;1.70;;
29380;SDS011;16364;52.490;13.326;2023-07-31T09:20:23;1.50;;;1.40;;
29380;SDS011;16364;52.490;13.326;2023-07-31T09:22:49;1.50;;;1.40;;
29380;SDS011;16364;52.490;13.326;2023-07-31T09:27:45;5.03;;;1.40;;
29380;SDS011;16364;52.490;13.326;2023-07-31T09:30:11;1.97;;;1.40;;
29380;SDS011;16364;52.490;13.326;2023-07-31T09:32:36;1.63;;;1.33;;
29380;SDS011;16364;52.490;13.326;2023-07-31T09:35:12;2.50;;;1.43;;
29380;SDS011;16364;52.490;13.326;2023-07-31T09:37:37;1.40;;;1.17;;
29380;SDS011;16364;52.490;13.326;2023-07-31T09:40:02;1.50;;;1.07;;
29380;SDS011;16364;52.490;13.326;2023-07-31T09:42:28;1.20;;;1.10;;
29380;SDS011;16364;52.490;13.326;2023-07-31T09:44:55;1.30;;;1.20;;
29380;SDS011;16364;52.490;13.326;2023-07-31T09:47:31;1.37;;;1.20;;
29380;SDS011;16364;52.490;13.326;2023-07-31T09:49:56;2.90;;;1.13;;
29380;SDS011;16364;52.490;13.326;2023-07-31T09:52:22;2.10;;;1.20;;
29380;SDS011;16364;52.490;13.326;2023-07-31T09:54:47;2.07;;;1.30;;
29380;SDS011;16364;52.490;13.326;2023-07-31T09:57:12;1.40;;;1.23;;
29380;SDS011;16364;52.490;13.326;2023-07-31T09:59:38;1.60;;;1.23;;
29380;SDS011;16364;52.490;13.326;2023-07-31T10:02:04;2.53;;;1.60;;
29380;SDS011;16364;52.490;13.326;2023-07-31T10:04:31;2.00;;;1.70;;
29380;SDS011;16364;52.490;13.326;2023-07-31T10:06:56;1.67;;;1.57;;
29380;SDS011;16364;52.490;13.326;2023-07-31T10:09:23;2.60;;;1.70;;
29380;SDS011;16364;52.490;13.326;2023-07-31T10:11:52;2.80;;;2.30;;
29380;SDS011;16364;52.490;13.326;2023-07-31T10:14:18;3.10;;;2.20;;
29380;SDS011;16364;52.490;13.326;2023-07-31T10:16:44;2.80;;;2.10;;
29380;SDS011;16364;52.490;13.326;2023-07-31T10:19:10;5.40;;;3.17;;
29380;SDS011;16364;52.490;13.326;2023-07-31T10:21:35;6.23;;;2.03;;
29380;SDS011;16364;52.490;13.326;2023-07-31T10:24:05;3.27;;;2.60;;
29380;SDS011;16364;52.490;13.326;2023-07-31T10:26:31;2.77;;;2.57;;
29380;SDS011;16364;52.490;13.326;2023-07-31T10:28:57;3.70;;;2.70;;
29380;SDS011;16364;52.490;13.326;2023-07-31T10:31:23;4.27;;;2.57;;
29380;SDS011;16364;52.490;13.326;2023-07-31T10:33:48;4.80;;;3.33;;
29380;SDS011;16364;52.490;13.326;2023-07-31T10:36:18;7.20;;;2.90;;
29380;SDS011;16364;52.490;13.326;2023-07-31T10:38:43;3.20;;;2.70;;
29380;SDS011;16364;52.490;13.326;2023-07-31T10:41:09;3.53;;;3.00;;
29380;SDS011;16364;52.490;13.326;2023-07-31T10:43:35;3.63;;;2.73;;
29380;SDS011;16364;52.490;13.326;2023-07-31T10:46:03;5.50;;;2.60;;
29380;SDS011;16364;52.490;13.326;2023-07-31T10:48:33;4.63;;;2.50;;
29380;SDS011;16364;52.490;13.326;2023-07-31T10:50:58;4.23;;;2.50;;
29380;SDS011;16364;52.490;13.326;2023-07-31T10:53:30;3.47;;;3.10;;
29380;SDS011;16364;52.490;13.326;2023-07-31T10:56:02;3.47;;;2.97;;
29380;SDS011;16364;52.490;13.326;2023-07-31T10:58:27;2.50;;;2.30;;
29380;SDS011;16364;52.490;13.326;2023-07-31T11:00:56;5.80;;;2.67;;
29380;SDS011;16364;52.490;13.326;2023-07-31T11:03:24;4.67;;;2.27;;
29380;SDS011;16364;52.490;13.326;2023-07-31T11:06:02;4.77;;;3.20;;
29380;SDS011;16364;52.490;13.326;2023-07-31T11:08:31;4.07;;;2.80;;
29380;SDS011;16364;52.490;13.326;2023-07-31T11:15:53;2.70;;;2.50;;
29380;SDS011;16364;52.490;13.326;2023-07-31T11:18:18;3.43;;;2.10;;
29380;SDS011;16364;52.490;13.326;2023-07-31T11:20:44;3.50;;;2.63;;
29380;SDS011;16364;52.490;13.326;2023-07-31T11:23:10;4.67;;;3.07;;
29380;SDS011;16364;52.490;13.326;2023-07-31T11:25:35;3.50;;;2.85;;
29380;SDS011;16364;52.490;13.326;2023-07-31T11:28:07;5.50;;;2.50;;
29380;SDS011;16364;52.490;13.326;2023-07-31T11:30:33;3.30;;;2.10;;
29380;SDS011;16364;52.490;13.326;2023-07-31T11:33:00;4.20;;;2.33;;
29380;SDS011;16364;52.490;13.326;2023-07-31T11:35:25;2.30;;;2.10;;
29380;SDS011;16364;52.490;13.326;2023-07-31T11:37:51;3.40;;;2.50;;
29380;SDS011;16364;52.490;13.326;2023-07-31T11:40:16;5.70;;;2.70;;
29380;SDS011;16364;52.490;13.326;2023-07-31T11:42:41;2.80;;;2.10;;
29380;SDS011;16364;52.490;13.326;2023-07-31T11:45:07;3.70;;;2.73;;
29380;SDS011;16364;52.490;13.326;2023-07-31T11:47:33;2.73;;;1.87;;
29380;SDS011;16364;52.490;13.326;2023-07-31T11:50:00;2.73;;;2.00;;
29380;SDS011;16364;52.490;13.326;2023-07-31T11:52:25;2.97;;;2.47;;
29380;SDS011;16364;52.490;13.326;2023-07-31T11:54:51;3.93;;;1.93;;
29380;SDS011;16364;52.490;13.326;2023-07-31T11:57:16;3.17;;;2.20;;
29380;SDS011;16364;52.490;13.326;2023-07-31T11:59:42;2.43;;;2.20;;
29380;SDS011;16364;52.490;13.326;2023-07-31T12:02:08;2.30;;;2.00;;
29380;SDS011;16364;52.490;13.326;2023-07-31T12:04:34;5.30;;;2.87;;
29380;SDS011;16364;52.490;13.326;2023-07-31T12:07:00;3.03;;;2.20;;
29380;SDS011;16364;52.490;13.326;2023-07-31T12:09:25;3.10;;;2.57;;
29380;SDS011;16364;52.490;13.326;2023-07-31T12:11:51;3.33;;;2.30;;
29380;SDS011;16364;52.490;13.326;2023-07-31T12:14:26;4.30;;;2.83;;
29380;SDS011;16364;52.490;13.326;2023-07-31T12:16:57;3.53;;;2.33;;
29380;SDS011;16364;52.490;13.326;2023-07-31T12:19:23;2.90;;;2.30;;
29380;SDS011;16364;52.490;13.326;2023-07-31T12:21:48;3.10;;;2.43;;
29380;SDS011;16364;52.490;13.326;2023-07-31T12:24:14;2.87;;;2.40;;
29380;SDS011;16364;52.490;13.326;2023-07-31T12:26:39;2.90;;;1.93;;
29380;SDS011;16364;52.490;13.326;2023-07-31T12:29:06;5.90;;;2.73;;
29380;SDS011;16364;52.490;13.326;2023-07-31T12:31:33;2.50;;;2.30;;
29380;SDS011;16364;52.490;13.326;2023-07-31T12:33:58;2.50;;;1.73;;
29380;SDS011;16364;52.490;13.326;2023-07-31T12:36:24;6.50;;;2.50;;
29380;SDS011;16364;52.490;13.326;2023-07-31T12:38:50;3.00;;;2.20;;
29380;SDS011;16364;52.490;13.326;2023-07-31T12:41:15;1.80;;;1.67;;
29380;SDS011;16364;52.490;13.326;2023-07-31T12:43:41;2.77;;;2.17;;
29380;SDS011;16364;52.490;13.326;2023-07-31T12:46:07;3.53;;;2.23;;
29380;SDS011;16364;52.490;13.326;2023-07-31T12:48:35;4.10;;;2.00;;
29380;SDS011;16364;52.490;13.326;2023-07-31T12:51:01;2.90;;;2.00;;
29380;SDS011;16364;52.490;13.326;2023-07-31T12:53:27;2.87;;;1.80;;
29380;SDS011;16364;52.490;13.326;2023-07-31T12:55:52;2.70;;;1.90;;
29380;SDS011;16364;52.490;13.326;2023-07-31T12:58:17;1.70;;;1.60;;
29380;SDS011;16364;52.490;13.326;2023-07-31T13:00:43;4.00;;;1.70;;
29380;SDS011;16364;52.490;13.326;2023-07-31T13:03:08;2.40;;;1.63;;
29380;SDS011;16364;52.490;13.326;2023-07-31T13:05:33;1.90;;;1.70;;
29380;SDS011;16364;52.490;13.326;2023-07-31T13:07:59;3.57;;;1.57;;
29380;SDS011;16364;52.490;13.326;2023-07-31T13:10:24;2.07;;;1.87;;
29380;SDS011;16364;52.490;13.326;2023-07-31T13:12:51;1.50;;;1.30;;
29380;SDS011;16364;52.490;13.326;2023-07-31T13:15:16;3.37;;;1.63;;
29380;SDS011;16364;52.490;13.326;2023-07-31T13:17:42;1.77;;;1.53;;
29380;SDS011;16364;52.490;13.326;2023-07-31T13:20:07;1.60;;;1.40;;
29380;SDS011;16364;52.490;13.326;2023-07-31T13:22:32;2.33;;;1.50;;
29380;SDS011;16364;52.490;13.326;2023-07-31T13:24:58;3.97;;;1.60;;
29380;SDS011;16364;52.490;13.326;2023-07-31T13:27:23;2.70;;;1.90;;
29380;SDS011;16364;52.490;13.326;2023-07-31T13:29:49;2.00;;;1.53;;
29380;SDS011;16364;52.490;13.326;2023-07-31T13:32:15;2.63;;;1.83;;
29380;SDS011;16364;52.490;13.326;2023-07-31T13:34:41;4.90;;;2.10;;
29380;SDS011;16364;52.490;13.326;2023-07-31T13:37:06;1.93;;;1.83;;
29380;SDS011;16364;52.490;13.326;2023-07-31T13:39:31;3.70;;;1.93;;
29380;SDS011;16364;52.490;13.326;2023-07-31T13:41:58;2.90;;;1.90;;
29380;SDS011;16364;52.490;13.326;2023-07-31T13:44:23;6.70;;;1.83;;
29380;SDS011;16364;52.490;13.326;2023-07-31T13:46:48;2.67;;;1.97;;
29380;SDS011;16364;52.490;13.326;2023-07-31T13:49:14;4.03;;;2.57;;
29380;SDS011;16364;52.490;13.326;2023-07-31T13:51:39;2.40;;;2.20;;
29380;SDS011;16364;52.490;13.326;2023-07-31T13:54:04;2.30;;;1.90;;
29380;SDS011;16364;52.490;13.326;2023-07-31T13:56:31;2.70;;;2.00;;
29380;SDS011;16364;52.490;13.326;2023-07-31T13:58:56;2.77;;;2.57;;
29380;SDS011;16364;52.490;13.326;2023-07-31T14:01:21;4.23;;;2.07;;
29380;SDS011;16364;52.490;13.326;2023-07-31T14:03:47;2.43;;;1.97;;
29380;SDS011;16364;52.490;13.326;2023-07-31T14:06:12;1.80;;;1.63;;
29380;SDS011;16364;52.490;13.326;2023-07-31T14:08:37;3.10;;;2.10;;
29380;SDS011;16364;52.490;13.326;2023-07-31T14:11:02;2.07;;;1.87;;
29380;SDS011;16364;52.490;13.326;2023-07-31T14:13:28;2.93;;;2.10;;
29380;SDS011;16364;52.490;13.326;2023-07-31T14:15:53;2.30;;;2.00;;
29380;SDS011;16364;52.490;13.326;2023-07-31T14:18:18;4.57;;;2.00;;
29380;SDS011;16364;52.490;13.326;2023-07-31T14:20:44;2.40;;;1.80;;
29380;SDS011;16364;52.490;13.326;2023-07-31T14:23:09;3.13;;;2.30;;
29380;SDS011;16364;52.490;13.326;2023-07-31T14:25:34;3.97;;;2.10;;
29380;SDS011;16364;52.490;13.326;2023-07-31T14:28:00;5.23;;;2.30;;
29380;SDS011;16364;52.490;13.326;2023-07-31T14:30:25;1.80;;;1.70;;
29380;SDS011;16364;52.490;13.326;2023-07-31T14:32:50;2.43;;;2.00;;
29380;SDS011;16364;52.490;13.326;2023-07-31T14:35:16;2.80;;;2.20;;